sensor_id;sensor_type;location;lat;lon;timestamp;pressure;altitude;pressure_sealevel;temperature;humidity
31681;BME280;18281;51.364;9.566;2023-04-03T00:01:56;101270.75;;;1.35;78.08
31681;BME280;18281;51.364;9.566;2023-04-03T00:04:21;101269.84;;;1.19;77.71
31681;BME280;18281;51.364;9.566;2023-04-03T00:06:46;101274.13;;;1.16;78.44
31681;BME280;18281;51.364;9.566;2023-04-03T00:09:12;101268.06;;;1.11;79.38
31681;BME280;18281;51.364;9.566;2023-04-03T00:11:37;101280.13;;;1.10;80.53
31681;BME280;18281;51.364;9.566;2023-04-03T00:14:02;101283.56;;;1.03;81.51
31681;BME280;18281;51.364;9.566;2023-04-03T00:16:28;101285.19;;;0.92;83.05
31681;BME280;18281;51.364;9.566;2023-04-03T00:18:53;101284.34;;;0.88;83.77
31681;BME280;18281;51.364;9.566;2023-04-03T00:21:19;101287.66;;;0.70;85.31
31681;BME280;18281;51.364;9.566;2023-04-03T00:23:44;101288.59;;;0.81;85.41
31681;BME280;18281;51.364;9.566;2023-04-03T00:26:10;101295.47;;;0.75;86.38
31681;BME280;18281;51.364;9.566;2023-04-03T00:28:35;101301.47;;;0.75;87.50
31681;BME280;18281;51.364;9.566;2023-04-03T00:31:01;101292.03;;;0.82;87.14
31681;BME280;18281;51.364;9.566;2023-04-03T00:33:26;101290.28;;;0.75;88.15
31681;BME280;18281;51.364;9.566;2023-04-03T00:35:52;101295.38;;;0.64;89.01
31681;BME280;18281;51.364;9.566;2023-04-03T00:38:17;101297.94;;;0.58;89.87
31681;BME280;18281;51.364;9.566;2023-04-03T00:40:45;101297.09;;;0.59;89.96
31681;BME280;18281;51.364;9.566;2023-04-03T00:43:21;101300.47;;;0.51;90.48
31681;BME280;18281;51.364;9.566;2023-04-03T00:45:48;101309.09;;;0.52;90.50
31681;BME280;18281;51.364;9.566;2023-04-03T00:48:24;101301.28;;;0.44;90.65
31681;BME280;18281;51.364;9.566;2023-04-03T00:50:51;101304.72;;;0.43;90.83
31681;BME280;18281;51.364;9.566;2023-04-03T00:53:27;101304.66;;;0.35;92.03
31681;BME280;18281;51.364;9.566;2023-04-03T00:55:55;101310.69;;;0.36;91.75
31681;BME280;18281;51.364;9.566;2023-04-03T00:58:25;101305.44;;;0.25;92.57
31681;BME280;18281;51.364;9.566;2023-04-03T01:00:55;101308.03;;;0.27;93.00
31681;BME280;18281;51.364;9.566;2023-04-03T01:03:23;101312.31;;;0.26;93.28
31681;BME280;18281;51.364;9.566;2023-04-03T01:05:49;101307.03;;;0.11;94.24
31681;BME280;18281;51.364;9.566;2023-04-03T01:08:15;101306.16;;;0.10;94.73
31681;BME280;18281;51.364;9.566;2023-04-03T01:10:40;101311.28;;;0.06;95.09
31681;BME280;18281;51.364;9.566;2023-04-03T01:13:22;101307.69;;;-0.12;96.59
31681;BME280;18281;51.364;9.566;2023-04-03T01:15:48;101311.22;;;-0.01;95.82
31681;BME280;18281;51.364;9.566;2023-04-03T01:18:13;101311.09;;;-0.15;97.02
31681;BME280;18281;51.364;9.566;2023-04-03T01:21:10;101315.47;;;-0.09;96.99
31681;BME280;18281;51.364;9.566;2023-04-03T01:23:57;101312.78;;;-0.20;97.32
31681;BME280;18281;51.364;9.566;2023-04-03T01:26:24;101314.44;;;-0.25;98.37
31681;BME280;18281;51.364;9.566;2023-04-03T01:28:53;101318.78;;;-0.21;97.87
31681;BME280;18281;51.364;9.566;2023-04-03T01:33:44;101322.13;;;-0.31;99.17
31681;BME280;18281;51.364;9.566;2023-04-03T01:36:15;101322.09;;;-0.34;99.21
31681;BME280;18281;51.364;9.566;2023-04-03T01:38:41;101325.53;;;-0.35;99.09
31681;BME280;18281;51.364;9.566;2023-04-03T01:41:07;101318.53;;;-0.45;99.42
31681;BME280;18281;51.364;9.566;2023-04-03T01:43:32;101317.72;;;-0.40;98.82
31681;BME280;18281;51.364;9.566;2023-04-03T01:45:57;101320.09;;;-0.57;100.00
31681;BME280;18281;51.364;9.566;2023-04-03T01:48:23;101322.78;;;-0.49;99.64
31681;BME280;18281;51.364;9.566;2023-04-03T01:50:48;101328.00;;;-0.44;98.72
31681;BME280;18281;51.364;9.566;2023-04-03T01:53:15;101340.00;;;-0.48;99.19
31681;BME280;18281;51.364;9.566;2023-04-03T01:55:40;101336.47;;;-0.55;98.68
31681;BME280;18281;51.364;9.566;2023-04-03T01:58:05;101338.22;;;-0.54;99.30
31681;BME280;18281;51.364;9.566;2023-04-03T02:00:31;101339.03;;;-0.56;98.49
31681;BME280;18281;51.364;9.566;2023-04-03T02:02:56;101336.22;;;-0.76;99.99
31681;BME280;18281;51.364;9.566;2023-04-03T02:05:22;101334.50;;;-0.76;100.00
31681;BME280;18281;51.364;9.566;2023-04-03T02:07:47;101339.63;;;-0.79;100.00
31681;BME280;18281;51.364;9.566;2023-04-03T02:10:13;101337.34;;;-1.19;100.00
31681;BME280;18281;51.364;9.566;2023-04-03T02:12:38;101335.03;;;-1.00;100.00
31681;BME280;18281;51.364;9.566;2023-04-03T02:15:04;101337.72;;;-0.92;100.00
31681;BME280;18281;51.364;9.566;2023-04-03T02:17:30;101332.63;;;-0.86;100.00
31681;BME280;18281;51.364;9.566;2023-04-03T02:19:55;101338.69;;;-0.86;100.00
31681;BME280;18281;51.364;9.566;2023-04-03T02:22:21;101333.44;;;-0.92;100.00
31681;BME280;18281;51.364;9.566;2023-04-03T02:24:46;101334.34;;;-0.90;100.00
31681;BME280;18281;51.364;9.566;2023-04-03T02:27:12;101337.63;;;-0.99;100.00
31681;BME280;18281;51.364;9.566;2023-04-03T02:29:37;101333.44;;;-0.92;100.00
31681;BME280;18281;51.364;9.566;2023-04-03T02:32:03;101335.06;;;-0.99;100.00
31681;BME280;18281;51.364;9.566;2023-04-03T02:34:28;101339.34;;;-0.99;100.00
31681;BME280;18281;51.364;9.566;2023-04-03T02:36:53;101335.94;;;-0.98;100.00
31681;BME280;18281;51.364;9.566;2023-04-03T02:39:19;101349.53;;;-1.08;100.00
31681;BME280;18281;51.364;9.566;2023-04-03T02:41:44;101352.94;;;-1.09;100.00
31681;BME280;18281;51.364;9.566;2023-04-03T02:44:11;101355.56;;;-1.08;100.00
31681;BME280;18281;51.364;9.566;2023-04-03T02:46:36;101352.75;;;-1.23;100.00
31681;BME280;18281;51.364;9.566;2023-04-03T02:49:02;101364.03;;;-1.17;100.00
31681;BME280;18281;51.364;9.566;2023-04-03T02:51:28;101357.13;;;-1.18;100.00
31681;BME280;18281;51.364;9.566;2023-04-03T02:53:53;101354.59;;;-1.13;100.00
31681;BME280;18281;51.364;9.566;2023-04-03T02:56:19;101356.28;;;-1.17;100.00
31681;BME280;18281;51.364;9.566;2023-04-03T02:58:45;101358.75;;;-1.24;100.00
31681;BME280;18281;51.364;9.566;2023-04-03T03:01:11;101353.53;;;-1.29;100.00
31681;BME280;18281;51.364;9.566;2023-04-03T03:03:37;101361.69;;;-1.55;100.00
31681;BME280;18281;51.364;9.566;2023-04-03T03:06:14;101359.38;;;-1.39;100.00
31681;BME280;18281;51.364;9.566;2023-04-03T03:08:40;101359.47;;;-1.33;100.00
31681;BME280;18281;51.364;9.566;2023-04-03T03:11:06;101360.47;;;-1.25;100.00
31681;BME280;18281;51.364;9.566;2023-04-03T03:13:31;101362.13;;;-1.30;100.00
31681;BME280;18281;51.364;9.566;2023-04-03T03:15:57;101368.06;;;-1.34;100.00
31681;BME280;18281;51.364;9.566;2023-04-03T03:18:23;101355.19;;;-1.34;100.00
31681;BME280;18281;51.364;9.566;2023-04-03T03:20:52;101357.78;;;-1.33;100.00
31681;BME280;18281;51.364;9.566;2023-04-03T03:23:19;101358.88;;;-1.70;100.00
31681;BME280;18281;51.364;9.566;2023-04-03T03:25:44;101361.59;;;-1.62;100.00
31681;BME280;18281;51.364;9.566;2023-04-03T03:28:12;101359.75;;;-1.70;100.00
31681;BME280;18281;51.364;9.566;2023-04-03T03:30:37;101362.44;;;-1.63;100.00
31681;BME280;18281;51.364;9.566;2023-04-03T03:33:03;101359.78;;;-1.67;100.00
31681;BME280;18281;51.364;9.566;2023-04-03T03:35:28;101370.16;;;-1.63;100.00
31681;BME280;18281;51.364;9.566;2023-04-03T03:37:54;101372.91;;;-1.53;100.00
31681;BME280;18281;51.364;9.566;2023-04-03T03:40:19;101372.00;;;-1.55;100.00
31681;BME280;18281;51.364;9.566;2023-04-03T03:42:45;101366.81;;;-1.58;100.00
31681;BME280;18281;51.364;9.566;2023-04-03T03:45:10;101367.66;;;-1.59;100.00
31681;BME280;18281;51.364;9.566;2023-04-03T03:47:36;101364.09;;;-1.66;100.00
31681;BME280;18281;51.364;9.566;2023-04-03T03:50:01;101363.22;;;-1.68;100.00
31681;BME280;18281;51.364;9.566;2023-04-03T03:52:27;101357.66;;;-1.91;100.00
31681;BME280;18281;51.364;9.566;2023-04-03T03:54:52;101362.97;;;-1.82;100.00
31681;BME280;18281;51.364;9.566;2023-04-03T03:57:17;101355.38;;;-1.75;100.00
31681;BME280;18281;51.364;9.566;2023-04-03T03:59:43;101354.53;;;-1.74;100.00
31681;BME280;18281;51.364;9.566;2023-04-03T04:02:10;101363.91;;;-1.78;100.00
31681;BME280;18281;51.364;9.566;2023-04-03T04:04:35;101366.47;;;-1.78;100.00
31681;BME280;18281;51.364;9.566;2023-04-03T04:07:01;101358.78;;;-1.76;100.00
31681;BME280;18281;51.364;9.566;2023-04-03T04:09:26;101373.22;;;-1.85;100.00
31681;BME280;18281;51.364;9.566;2023-04-03T04:11:52;101373.28;;;-1.82;100.00
31681;BME280;18281;51.364;9.566;2023-04-03T04:14:18;101375.81;;;-1.83;100.00
31681;BME280;18281;51.364;9.566;2023-04-03T04:16:45;101384.91;;;-2.02;100.00
31681;BME280;18281;51.364;9.566;2023-04-03T04:19:11;101394.41;;;-2.00;100.00
31681;BME280;18281;51.364;9.566;2023-04-03T04:21:36;101385.75;;;-2.03;100.00
31681;BME280;18281;51.364;9.566;2023-04-03T04:24:01;101387.66;;;-1.93;100.00
31681;BME280;18281;51.364;9.566;2023-04-03T04:26:27;101387.72;;;-1.90;100.00
31681;BME280;18281;51.364;9.566;2023-04-03T04:28:52;101393.53;;;-2.00;100.00
31681;BME280;18281;51.364;9.566;2023-04-03T04:31:18;101393.59;;;-1.99;100.00
31681;BME280;18281;51.364;9.566;2023-04-03T04:33:43;101389.25;;;-2.00;100.00
31681;BME280;18281;51.364;9.566;2023-04-03T04:36:08;101389.97;;;-2.07;100.00
31681;BME280;18281;51.364;9.566;2023-04-03T04:38:34;101395.94;;;-2.09;100.00
31681;BME280;18281;51.364;9.566;2023-04-03T04:40:59;101399.56;;;-2.00;100.00
31681;BME280;18281;51.364;9.566;2023-04-03T04:43:25;101407.16;;;-2.06;100.00
31681;BME280;18281;51.364;9.566;2023-04-03T04:46:03;101404.38;;;-2.17;100.00
31681;BME280;18281;51.364;9.566;2023-04-03T04:48:29;101405.19;;;-2.18;100.00
31681;BME280;18281;51.364;9.566;2023-04-03T04:50:54;101407.25;;;-2.01;100.00
31681;BME280;18281;51.364;9.566;2023-04-03T04:53:20;101401.03;;;-2.11;100.00
31681;BME280;18281;51.364;9.566;2023-04-03T04:55:45;101417.13;;;-2.23;100.00
31681;BME280;18281;51.364;9.566;2023-04-03T04:58:11;101407.06;;;-2.10;100.00
31681;BME280;18281;51.364;9.566;2023-04-03T05:00:36;101407.06;;;-2.10;100.00
31681;BME280;18281;51.364;9.566;2023-04-03T05:03:01;101416.47;;;-2.11;100.00
31681;BME280;18281;51.364;9.566;2023-04-03T05:05:27;101407.00;;;-2.13;100.00
31681;BME280;18281;51.364;9.566;2023-04-03T05:07:53;101414.59;;;-2.21;100.00
31681;BME280;18281;51.364;9.566;2023-04-03T05:10:18;101422.97;;;-2.30;100.00
31681;BME280;18281;51.364;9.566;2023-04-03T05:12:43;101424.56;;;-2.35;100.00
31681;BME280;18281;51.364;9.566;2023-04-03T05:15:09;101428.81;;;-2.39;100.00
31681;BME280;18281;51.364;9.566;2023-04-03T05:17:34;101433.97;;;-2.37;100.00
31681;BME280;18281;51.364;9.566;2023-04-03T05:20:00;101434.00;;;-2.36;100.00
31681;BME280;18281;51.364;9.566;2023-04-03T05:22:25;101440.69;;;-2.45;100.00
31681;BME280;18281;51.364;9.566;2023-04-03T05:24:50;101446.75;;;-2.40;100.00
31681;BME280;18281;51.364;9.566;2023-04-03T05:27:16;101442.69;;;-2.30;100.00
31681;BME280;18281;51.364;9.566;2023-04-03T05:29:42;101440.94;;;-2.33;100.00
31681;BME280;18281;51.364;9.566;2023-04-03T05:32:09;101447.81;;;-2.32;100.00
31681;BME280;18281;51.364;9.566;2023-04-03T05:34:34;101452.88;;;-2.35;100.00
31681;BME280;18281;51.364;9.566;2023-04-03T05:37:00;101448.66;;;-2.33;100.00
31681;BME280;18281;51.364;9.566;2023-04-03T05:39:29;101452.88;;;-2.35;100.00
31681;BME280;18281;51.364;9.566;2023-04-03T05:41:56;101450.31;;;-2.35;100.00
31681;BME280;18281;51.364;9.566;2023-04-03T05:44:21;101454.47;;;-2.40;100.00
31681;BME280;18281;51.364;9.566;2023-04-03T05:46:47;101453.66;;;-2.38;100.00
31681;BME280;18281;51.364;9.566;2023-04-03T05:49:12;101455.38;;;-2.40;100.00
31681;BME280;18281;51.364;9.566;2023-04-03T05:51:38;101456.09;;;-2.45;100.00
31681;BME280;18281;51.364;9.566;2023-04-03T05:54:18;101457.00;;;-2.43;100.00
31681;BME280;18281;51.364;9.566;2023-04-03T05:56:44;101456.75;;;-2.15;100.00
31681;BME280;18281;51.364;9.566;2023-04-03T05:59:10;101462.56;;;-2.23;100.00
31681;BME280;18281;51.364;9.566;2023-04-03T06:01:36;101467.69;;;-2.25;100.00
31681;BME280;18281;51.364;9.566;2023-04-03T06:04:02;101469.34;;;-2.27;100.00
31681;BME280;18281;51.364;9.566;2023-04-03T06:06:46;101464.97;;;-2.31;100.00
31681;BME280;18281;51.364;9.566;2023-04-03T06:09:12;101468.22;;;-1.02;100.00
31681;BME280;18281;51.364;9.566;2023-04-03T06:11:38;101474.63;;;-0.13;100.00
31681;BME280;18281;51.364;9.566;2023-04-03T06:14:04;101470.53;;;0.05;100.00
31681;BME280;18281;51.364;9.566;2023-04-03T06:16:29;101470.38;;;-0.07;100.00
31681;BME280;18281;51.364;9.566;2023-04-03T06:18:54;101468.06;;;-0.55;100.00
31681;BME280;18281;51.364;9.566;2023-04-03T06:21:21;101468.31;;;-0.96;100.00
31681;BME280;18281;51.364;9.566;2023-04-03T06:23:46;101468.09;;;-1.10;100.00
31681;BME280;18281;51.364;9.566;2023-04-03T06:26:11;101471.22;;;-1.28;100.00
31681;BME280;18281;51.364;9.566;2023-04-03T06:28:37;101482.44;;;-1.26;100.00
31681;BME280;18281;51.364;9.566;2023-04-03T06:31:02;101485.03;;;-1.24;100.00
31681;BME280;18281;51.364;9.566;2023-04-03T06:33:28;101485.97;;;-1.19;100.00
31681;BME280;18281;51.364;9.566;2023-04-03T06:35:57;101482.47;;;-1.23;100.00
31681;BME280;18281;51.364;9.566;2023-04-03T06:38:23;101489.03;;;-1.40;100.00
31681;BME280;18281;51.364;9.566;2023-04-03T06:40:48;101491.50;;;-1.47;100.00
31681;BME280;18281;51.364;9.566;2023-04-03T06:43:13;101498.56;;;-1.36;100.00
31681;BME280;18281;51.364;9.566;2023-04-03T06:45:39;101495.13;;;-1.37;100.00
31681;BME280;18281;51.364;9.566;2023-04-03T06:48:05;101496.25;;;-1.22;100.00
31681;BME280;18281;51.364;9.566;2023-04-03T06:50:30;101499.50;;;-1.31;100.00
31681;BME280;18281;51.364;9.566;2023-04-03T06:52:56;101509.88;;;-1.28;100.00
31681;BME280;18281;51.364;9.566;2023-04-03T06:55:21;101511.94;;;-1.08;100.00
31681;BME280;18281;51.364;9.566;2023-04-03T06:57:47;101521.41;;;-1.07;100.00
31681;BME280;18281;51.364;9.566;2023-04-03T07:00:13;101520.50;;;-1.09;98.81
31681;BME280;18281;51.364;9.566;2023-04-03T07:02:38;101532.50;;;-1.11;98.76
31681;BME280;18281;51.364;9.566;2023-04-03T07:05:04;101531.81;;;-1.00;98.34
31681;BME280;18281;51.364;9.566;2023-04-03T07:07:30;101529.22;;;-1.01;97.71
31681;BME280;18281;51.364;9.566;2023-04-03T07:09:55;101525.94;;;-0.94;96.55
31681;BME280;18281;51.364;9.566;2023-04-03T07:12:21;101541.41;;;-0.92;95.83
31681;BME280;18281;51.364;9.566;2023-04-03T07:14:46;101533.69;;;-0.91;93.73
31681;BME280;18281;51.364;9.566;2023-04-03T07:17:12;101527.75;;;-0.87;92.65
31681;BME280;18281;51.364;9.566;2023-04-03T07:19:37;101525.44;;;-0.70;93.14
31681;BME280;18281;51.364;9.566;2023-04-03T07:22:02;101540.59;;;-0.90;92.19
31681;BME280;18281;51.364;9.566;2023-04-03T07:24:28;101536.63;;;-0.69;92.00
31681;BME280;18281;51.364;9.566;2023-04-03T07:26:53;101541.63;;;-0.78;90.28
31681;BME280;18281;51.364;9.566;2023-04-03T07:29:19;101545.50;;;-0.52;89.63
31681;BME280;18281;51.364;9.566;2023-04-03T07:31:46;101538.41;;;-0.65;87.60
31681;BME280;18281;51.364;9.566;2023-04-03T07:34:12;101534.88;;;-0.70;87.10
31681;BME280;18281;51.364;9.566;2023-04-03T07:36:37;101538.84;;;-0.36;86.96
31681;BME280;18281;51.364;9.566;2023-04-03T07:39:03;101537.59;;;-0.61;84.36
31681;BME280;18281;51.364;9.566;2023-04-03T07:41:28;101546.63;;;-0.33;84.25
31681;BME280;18281;51.364;9.566;2023-04-03T07:43:55;101546.69;;;-0.30;82.84
31681;BME280;18281;51.364;9.566;2023-04-03T07:46:21;101550.28;;;-0.18;81.21
31681;BME280;18281;51.364;9.566;2023-04-03T07:48:47;101548.03;;;0.08;80.64
31681;BME280;18281;51.364;9.566;2023-04-03T07:51:12;101553.13;;;0.02;80.51
31681;BME280;18281;51.364;9.566;2023-04-03T07:53:38;101548.22;;;0.24;78.10
31681;BME280;18281;51.364;9.566;2023-04-03T07:56:03;101547.53;;;0.37;77.35
31681;BME280;18281;51.364;9.566;2023-04-03T07:58:29;101546.72;;;0.41;76.75
31681;BME280;18281;51.364;9.566;2023-04-03T08:00:55;101557.97;;;0.46;75.15
31681;BME280;18281;51.364;9.566;2023-04-03T08:03:21;101545.31;;;0.68;75.66
31681;BME280;18281;51.364;9.566;2023-04-03T08:05:48;101545.25;;;0.65;73.72
31681;BME280;18281;51.364;9.566;2023-04-03T08:08:16;101553.28;;;0.93;74.21
31681;BME280;18281;51.364;9.566;2023-04-03T08:10:42;101561.69;;;0.73;73.36
31681;BME280;18281;51.364;9.566;2023-04-03T08:13:08;101551.59;;;0.95;72.02
31681;BME280;18281;51.364;9.566;2023-04-03T08:15:34;101549.91;;;0.98;70.28
31681;BME280;18281;51.364;9.566;2023-04-03T08:18:00;101545.88;;;1.33;70.44
31681;BME280;18281;51.364;9.566;2023-04-03T08:20:25;101552.84;;;1.40;70.10
31681;BME280;18281;51.364;9.566;2023-04-03T08:22:51;101556.22;;;1.31;70.17
31681;BME280;18281;51.364;9.566;2023-04-03T08:25:17;101551.06;;;1.36;70.01
31681;BME280;18281;51.364;9.566;2023-04-03T08:27:43;101553.63;;;1.28;70.05
31681;BME280;18281;51.364;9.566;2023-04-03T08:30:08;101551.28;;;1.67;69.09
31681;BME280;18281;51.364;9.566;2023-04-03T08:32:34;101552.19;;;1.72;68.17
31681;BME280;18281;51.364;9.566;2023-04-03T08:35:01;101556.53;;;1.76;68.17
31681;BME280;18281;51.364;9.566;2023-04-03T08:37:26;101560.72;;;1.54;68.13
31681;BME280;18281;51.364;9.566;2023-04-03T08:39:51;101562.66;;;1.87;67.24
31681;BME280;18281;51.364;9.566;2023-04-03T08:45:50;101556.69;;;2.01;65.81
31681;BME280;18281;51.364;9.566;2023-04-03T08:48:22;101563.63;;;2.10;66.12
31681;BME280;18281;51.364;9.566;2023-04-03T08:51:02;101555.84;;;2.08;65.36
31681;BME280;18281;51.364;9.566;2023-04-03T08:53:33;101558.22;;;1.68;65.32
31681;BME280;18281;51.364;9.566;2023-04-03T08:56:03;101552.41;;;2.06;65.51
31681;BME280;18281;51.364;9.566;2023-04-03T08:58:33;101543.78;;;2.10;64.58
31681;BME280;18281;51.364;9.566;2023-04-03T09:01:05;101544.75;;;2.52;63.89
31681;BME280;18281;51.364;9.566;2023-04-03T09:03:35;101535.31;;;2.79;64.26
31681;BME280;18281;51.364;9.566;2023-04-03T09:06:11;101541.34;;;2.60;63.27
31681;BME280;18281;51.364;9.566;2023-04-03T09:08:50;101543.72;;;2.05;64.13
31681;BME280;18281;51.364;9.566;2023-04-03T09:11:34;101543.91;;;2.53;63.44
31681;BME280;18281;51.364;9.566;2023-04-03T09:14:20;101541.97;;;1.98;62.55
31681;BME280;18281;51.364;9.566;2023-04-03T09:16:58;101540.47;;;2.59;62.58
31681;BME280;18281;51.364;9.566;2023-04-03T09:22:02;101530.00;;;2.25;61.92
31681;BME280;18281;51.364;9.566;2023-04-03T09:24:28;101538.63;;;2.21;61.76
31681;BME280;18281;51.364;9.566;2023-04-03T09:27:04;101550.75;;;2.28;61.71
31681;BME280;18281;51.364;9.566;2023-04-03T09:29:31;101535.34;;;2.82;61.16
31681;BME280;18281;51.364;9.566;2023-04-03T09:32:02;101526.69;;;2.77;60.88
31681;BME280;18281;51.364;9.566;2023-04-03T09:34:36;101533.59;;;2.95;60.56
31681;BME280;18281;51.364;9.566;2023-04-03T09:37:04;101530.16;;;3.27;60.25
31681;BME280;18281;51.364;9.566;2023-04-03T09:39:47;101536.19;;;3.25;60.79
31681;BME280;18281;51.364;9.566;2023-04-03T09:42:21;101539.69;;;3.05;63.06
31681;BME280;18281;51.364;9.566;2023-04-03T09:45:03;101541.41;;;3.46;67.93
31681;BME280;18281;51.364;9.566;2023-04-03T09:47:33;101536.13;;;3.93;68.45
31681;BME280;18281;51.364;9.566;2023-04-03T09:52:38;101541.38;;;3.17;62.32
31681;BME280;18281;51.364;9.566;2023-04-03T09:55:15;101541.38;;;3.43;61.49
31681;BME280;18281;51.364;9.566;2023-04-03T09:57:43;101537.94;;;2.93;61.01
31681;BME280;18281;51.364;9.566;2023-04-03T10:00:31;101537.03;;;2.74;60.83
31681;BME280;18281;51.364;9.566;2023-04-03T10:02:58;101521.50;;;2.77;60.40
31681;BME280;18281;51.364;9.566;2023-04-03T10:05:34;101529.28;;;3.08;59.66
31681;BME280;18281;51.364;9.566;2023-04-03T10:10:38;101534.34;;;2.28;59.43
31681;BME280;18281;51.364;9.566;2023-04-03T10:13:11;101546.50;;;2.52;60.08
31681;BME280;18281;51.364;9.566;2023-04-03T10:15:43;101539.56;;;2.38;59.38
31681;BME280;18281;51.364;9.566;2023-04-03T10:21:36;101546.50;;;2.50;59.98
31681;BME280;18281;51.364;9.566;2023-04-03T10:24:10;101536.91;;;2.18;59.50
31681;BME280;18281;51.364;9.566;2023-04-03T10:26:45;101529.97;;;2.20;59.45
31681;BME280;18281;51.364;9.566;2023-04-03T10:29:21;101533.16;;;1.67;59.63
31681;BME280;18281;51.364;9.566;2023-04-03T10:34:45;101537.66;;;1.99;59.50
31681;BME280;18281;51.364;9.566;2023-04-03T10:40:23;101523.94;;;2.25;59.82
31681;BME280;18281;51.364;9.566;2023-04-03T10:45:57;101520.50;;;2.22;59.47
31681;BME280;18281;51.364;9.566;2023-04-03T10:51:09;101515.25;;;2.04;59.76
31681;BME280;18281;51.364;9.566;2023-04-03T10:54:11;101510.84;;;1.89;59.98
31681;BME280;18281;51.364;9.566;2023-04-03T11:01:35;101511.94;;;2.61;60.48
31681;BME280;18281;51.364;9.566;2023-04-03T11:04:04;101503.31;;;2.55;60.00
31681;BME280;18281;51.364;9.566;2023-04-03T11:06:37;101504.97;;;2.30;59.51
31681;BME280;18281;51.364;9.566;2023-04-03T11:09:15;101492.03;;;2.47;59.96
31681;BME280;18281;51.364;9.566;2023-04-03T11:11:44;101500.75;;;2.77;59.91
31681;BME280;18281;51.364;9.566;2023-04-03T11:14:29;101496.38;;;2.48;59.90
31681;BME280;18281;51.364;9.566;2023-04-03T11:17:04;101489.50;;;2.70;59.28
31681;BME280;18281;51.364;9.566;2023-04-03T11:19:42;101486.91;;;2.86;59.32
31681;BME280;18281;51.364;9.566;2023-04-03T11:25:02;101473.94;;;2.86;58.49
31681;BME280;18281;51.364;9.566;2023-04-03T11:27:33;101482.59;;;2.86;59.25
31681;BME280;18281;51.364;9.566;2023-04-03T11:30:06;101478.25;;;3.05;59.90
31681;BME280;18281;51.364;9.566;2023-04-03T11:32:51;101470.44;;;2.61;58.46
31681;BME280;18281;51.364;9.566;2023-04-03T11:35:20;101459.22;;;2.71;59.02
31681;BME280;18281;51.364;9.566;2023-04-03T11:37:48;101465.28;;;3.07;58.88
31681;BME280;18281;51.364;9.566;2023-04-03T11:42:46;101449.63;;;3.57;58.22
31681;BME280;18281;51.364;9.566;2023-04-03T11:48:41;101451.31;;;3.70;57.08
31681;BME280;18281;51.364;9.566;2023-04-03T11:50:49;101450.44;;;3.72;57.10
31681;BME280;18281;51.364;9.566;2023-04-03T11:58:33;101459.06;;;3.85;58.04
31681;BME280;18281;51.364;9.566;2023-04-03T12:01:01;101437.44;;;3.74;57.58
31681;BME280;18281;51.364;9.566;2023-04-03T12:18:55;101428.78;;;3.75;60.08
31681;BME280;18281;51.364;9.566;2023-04-03T12:22:10;101431.41;;;3.67;59.85
31681;BME280;18281;51.364;9.566;2023-04-03T12:45:53;101411.41;;;3.89;59.00
31681;BME280;18281;51.364;9.566;2023-04-03T12:48:26;101405.31;;;3.94;59.53
31681;BME280;18281;51.364;9.566;2023-04-03T12:50:53;101407.09;;;3.88;58.98
31681;BME280;18281;51.364;9.566;2023-04-03T12:53:23;101411.34;;;4.02;58.79
31681;BME280;18281;51.364;9.566;2023-04-03T12:55:57;101402.81;;;3.75;57.44
31681;BME280;18281;51.364;9.566;2023-04-03T12:58:39;101405.44;;;3.69;57.79
31681;BME280;18281;51.364;9.566;2023-04-03T13:01:14;101407.28;;;3.45;56.77
31681;BME280;18281;51.364;9.566;2023-04-03T13:03:45;101393.19;;;3.93;57.71
31681;BME280;18281;51.364;9.566;2023-04-03T13:06:32;101389.78;;;3.86;56.99
31681;BME280;18281;51.364;9.566;2023-04-03T13:09:00;101381.28;;;3.41;56.45
31681;BME280;18281;51.364;9.566;2023-04-03T13:11:30;101386.38;;;3.71;56.89
31681;BME280;18281;51.364;9.566;2023-04-03T13:14:21;101380.28;;;3.76;57.23
31681;BME280;18281;51.364;9.566;2023-04-03T13:16:55;101379.28;;;4.01;59.20
31681;BME280;18281;51.364;9.566;2023-04-03T13:19:23;101381.13;;;3.87;58.39
31681;BME280;18281;51.364;9.566;2023-04-03T13:21:53;101381.03;;;4.01;58.51
31681;BME280;18281;51.364;9.566;2023-04-03T13:24:21;101379.47;;;3.67;57.81
31681;BME280;18281;51.364;9.566;2023-04-03T13:26:47;101379.44;;;3.75;57.59
31681;BME280;18281;51.364;9.566;2023-04-03T13:29:27;101381.13;;;3.85;58.06
31681;BME280;18281;51.364;9.566;2023-04-03T13:31:54;101382.88;;;3.76;57.96
31681;BME280;18281;51.364;9.566;2023-04-03T13:34:23;101368.00;;;4.07;58.49
31681;BME280;18281;51.364;9.566;2023-04-03T13:41:48;101374.94;;;4.05;57.45
31681;BME280;18281;51.364;9.566;2023-04-03T13:47:24;101349.56;;;4.35;57.07
31681;BME280;18281;51.364;9.566;2023-04-03T13:52:38;101352.22;;;4.32;57.53
31681;BME280;18281;51.364;9.566;2023-04-03T13:55:26;101354.78;;;4.36;56.54
31681;BME280;18281;51.364;9.566;2023-04-03T14:02:59;101338.31;;;4.36;55.88
31681;BME280;18281;51.364;9.566;2023-04-03T14:05:25;101336.66;;;4.24;56.39
31681;BME280;18281;51.364;9.566;2023-04-03T14:07:52;101325.34;;;4.33;56.74
31681;BME280;18281;51.364;9.566;2023-04-03T14:10:18;101326.00;;;4.55;55.90
31681;BME280;18281;51.364;9.566;2023-04-03T14:12:44;101343.78;;;3.96;55.95
31681;BME280;18281;51.364;9.566;2023-04-03T14:15:23;101346.28;;;4.14;57.79
31681;BME280;18281;51.364;9.566;2023-04-03T14:17:49;101347.19;;;4.04;56.65
31681;BME280;18281;51.364;9.566;2023-04-03T14:20:19;101357.47;;;4.22;57.13
31681;BME280;18281;51.364;9.566;2023-04-03T14:22:46;101338.47;;;4.19;56.73
31681;BME280;18281;51.364;9.566;2023-04-03T14:25:12;101330.56;;;4.28;56.44
31681;BME280;18281;51.364;9.566;2023-04-03T14:27:40;101325.34;;;4.28;56.60
31681;BME280;18281;51.364;9.566;2023-04-03T14:30:11;101331.59;;;4.07;56.31
31681;BME280;18281;51.364;9.566;2023-04-03T14:32:37;101327.94;;;4.33;56.95
31681;BME280;18281;51.364;9.566;2023-04-03T14:35:03;101331.81;;;3.76;55.94
31681;BME280;18281;51.364;9.566;2023-04-03T14:37:30;101328.16;;;4.03;57.18